createdAt,value
2022-08-14T00:02:01.423Z,25.40
2022-08-14T00:04:34.875Z,25.30
2022-08-14T00:07:07.656Z,25.30
2022-08-14T00:09:56.100Z,25.20
2022-08-14T00:12:24.842Z,25.20
2022-08-14T00:15:02.670Z,25.10
2022-08-14T00:17:38.062Z,25.10
2022-08-14T00:20:23.839Z,25.00
2022-08-14T00:22:58.454Z,25.10
2022-08-14T00:25:41.492Z,25.00
2022-08-14T00:28:15.433Z,25.00
2022-08-14T00:30:46.325Z,25.00
2022-08-14T00:33:16.870Z,25.00
2022-08-14T00:36:36.074Z,25.00
2022-08-14T00:38:34.921Z,25.00
2022-08-14T00:41:03.705Z,24.90
2022-08-14T00:43:32.483Z,24.80
2022-08-14T00:46:05.348Z,24.80
2022-08-14T00:48:38.654Z,24.80
2022-08-14T00:51:11.895Z,24.80
2022-08-14T00:53:42.970Z,24.70
2022-08-14T00:56:14.162Z,24.70
2022-08-14T00:58:45.118Z,24.70
2022-08-14T01:01:18.678Z,24.60
2022-08-14T01:03:52.840Z,24.60
2022-08-14T01:06:21.394Z,24.60
2022-08-14T01:08:52.137Z,24.60
2022-08-14T01:11:31.814Z,24.60
2022-08-14T01:14:18.202Z,24.60
2022-08-14T01:16:52.827Z,24.50
2022-08-14T01:19:41.297Z,24.60
2022-08-14T01:22:12.327Z,24.50
2022-08-14T01:24:43.504Z,24.50
2022-08-14T01:27:16.083Z,24.40
2022-08-14T01:30:00.696Z,24.40
2022-08-14T01:32:35.643Z,24.30
2022-08-14T01:35:19.345Z,24.30
2022-08-14T01:37:58.194Z,24.30
2022-08-14T01:40:33.167Z,24.30
2022-08-14T01:43:08.775Z,24.20
2022-08-14T01:45:40.787Z,24.20
2022-08-14T01:48:13.474Z,24.20
2022-08-14T01:50:42.838Z,24.20
2022-08-14T01:53:14.592Z,24.20
2022-08-14T01:55:42.614Z,24.20
2022-08-14T01:58:19.477Z,24.10
2022-08-14T02:00:54.040Z,23.90
2022-08-14T02:03:24.089Z,23.80
2022-08-14T02:05:52.016Z,23.80
2022-08-14T02:08:22.235Z,23.80
2022-08-14T02:11:23.756Z,23.70
2022-08-14T02:13:58.751Z,23.60
2022-08-14T02:16:29.566Z,23.60
2022-08-14T02:18:59.617Z,23.60
2022-08-14T02:21:43.206Z,23.50
2022-08-14T02:24:39.367Z,23.50
2022-08-14T02:28:22.295Z,23.50
2022-08-14T02:29:59.679Z,23.50
2022-08-14T02:32:36.263Z,23.40
2022-08-14T02:35:10.354Z,23.40
2022-08-14T02:37:48.102Z,23.40
2022-08-14T02:40:18.922Z,23.40
2022-08-14T02:42:54.534Z,23.30
2022-08-14T02:45:25.620Z,23.30
2022-08-14T02:48:01.924Z,23.30
2022-08-14T02:50:29.986Z,23.20
2022-08-14T02:53:03.126Z,23.20
2022-08-14T02:55:33.172Z,23.20
2022-08-14T02:58:03.657Z,23.10
2022-08-14T03:00:39.717Z,23.10
2022-08-14T03:03:08.509Z,23.10
2022-08-14T03:05:41.187Z,23.10
2022-08-14T03:08:11.735Z,23.00
2022-08-14T03:10:49.191Z,23.00
2022-08-14T03:13:19.320Z,23.00
2022-08-14T03:15:56.312Z,23.10
2022-08-14T03:18:30.584Z,23.10
2022-08-14T03:21:01.848Z,23.10
2022-08-14T03:23:36.310Z,23.10
2022-08-14T03:26:12.572Z,23.10
2022-08-14T03:28:48.190Z,23.20
2022-08-14T03:31:16.650Z,23.30
2022-08-14T03:33:44.916Z,23.40
2022-08-14T03:37:50.962Z,23.40
2022-08-14T03:39:21.647Z,23.40
2022-08-14T03:41:53.258Z,23.40
2022-08-14T03:45:25.749Z,23.40
2022-08-14T03:47:09.002Z,23.40
2022-08-14T03:49:42.132Z,23.40
2022-08-14T03:52:27.853Z,23.40
2022-08-14T03:54:59.844Z,23.40
2022-08-14T03:57:32.252Z,23.30
2022-08-14T04:00:03.973Z,23.30
2022-08-14T04:02:37.229Z,23.30
2022-08-14T04:05:11.598Z,23.20
2022-08-14T04:07:50.057Z,23.20
2022-08-14T04:10:31.956Z,23.20
2022-08-14T04:13:03.248Z,23.20
2022-08-14T04:15:31.809Z,23.20
2022-08-14T04:18:20.300Z,23.20
2022-08-14T04:20:54.315Z,23.10
2022-08-14T04:23:29.626Z,23.10
2022-08-14T04:26:01.849Z,23.00
2022-08-14T04:29:05.314Z,23.00
2022-08-14T04:31:24.844Z,22.90
2022-08-14T04:34:16.976Z,22.80
2022-08-14T04:37:07.498Z,22.80
2022-08-14T04:39:57.453Z,22.70
2022-08-14T04:42:47.533Z,22.70
2022-08-14T04:45:23.240Z,22.70
2022-08-14T04:48:09.829Z,20.30
2022-08-14T04:50:44.334Z,22.60
2022-08-14T04:53:15.077Z,22.60
2022-08-14T04:55:44.967Z,22.60
2022-08-14T04:58:21.809Z,22.70
2022-08-14T05:00:58.848Z,22.70
2022-08-14T05:03:31.749Z,22.70
2022-08-14T05:06:01.652Z,22.70
2022-08-14T05:08:50.455Z,22.70
2022-08-14T05:11:19.891Z,22.80
2022-08-14T05:16:38.797Z,22.90
2022-08-14T05:19:17.632Z,22.80
2022-08-14T05:22:01.249Z,22.90
2022-08-14T05:24:44.184Z,22.80
2022-08-14T05:27:12.073Z,22.80
2022-08-14T05:29:40.841Z,22.80
2022-08-14T05:32:13.520Z,22.80
2022-08-14T05:34:45.913Z,22.90
2022-08-14T05:37:15.348Z,22.90
2022-08-14T05:42:22.342Z,22.90
2022-08-14T05:44:57.482Z,23.00
2022-08-14T05:47:33.776Z,23.00
2022-08-14T05:50:14.449Z,23.00
2022-08-14T05:52:46.076Z,23.10
2022-08-14T05:55:14.255Z,23.10
2022-08-14T05:57:50.659Z,23.10
2022-08-14T06:00:28.263Z,23.20
2022-08-14T06:03:00.070Z,23.20
2022-08-14T06:05:29.521Z,23.30
2022-08-14T06:07:58.110Z,23.30
2022-08-14T06:10:28.215Z,23.30
2022-08-14T06:12:57.907Z,23.30
2022-08-14T06:15:29.981Z,23.30
2022-08-14T06:18:01.732Z,23.30
2022-08-14T06:20:30.919Z,23.40
2022-08-14T06:22:59.828Z,23.40
2022-08-14T06:25:28.582Z,23.40
2022-08-14T06:27:58.237Z,23.40
2022-08-14T06:30:42.178Z,23.50
2022-08-14T06:33:18.044Z,23.60
2022-08-14T06:35:47.183Z,23.60
2022-08-14T06:38:17.958Z,23.70
2022-08-14T06:40:46.499Z,23.80
2022-08-14T06:43:16.948Z,23.90
2022-08-14T06:45:48.352Z,23.90
2022-08-14T06:48:25.171Z,23.90
2022-08-14T06:50:55.143Z,24.00
2022-08-14T06:53:27.649Z,24.20
2022-08-14T06:56:00.594Z,24.20
2022-08-14T06:58:31.439Z,24.30
2022-08-14T07:01:23.056Z,24.30
2022-08-14T07:04:22.487Z,24.30
2022-08-14T07:06:51.393Z,24.30
2022-08-14T07:09:24.232Z,24.40
2022-08-14T07:11:52.543Z,24.40
2022-08-14T07:14:20.463Z,24.30
2022-08-14T07:16:48.309Z,24.30
2022-08-14T07:19:21.058Z,24.30
2022-08-14T07:21:50.302Z,24.30
2022-08-14T07:24:21.500Z,24.20
2022-08-14T07:29:26.243Z,24.30
2022-08-14T07:31:57.284Z,24.30
2022-08-14T07:34:40.905Z,24.30
2022-08-14T07:37:11.001Z,24.40
2022-08-14T07:39:38.975Z,24.50
2022-08-14T07:42:11.421Z,24.50
2022-08-14T07:44:46.485Z,24.60
2022-08-14T07:47:17.242Z,24.70
2022-08-14T07:49:58.969Z,24.70
2022-08-14T07:52:30.755Z,24.90
2022-08-14T07:55:01.867Z,24.90
2022-08-14T07:57:29.776Z,24.90
2022-08-14T07:59:57.702Z,24.90
2022-08-14T08:02:28.866Z,24.90
2022-08-14T08:05:02.482Z,25.00
2022-08-14T08:07:31.730Z,25.10
2022-08-14T08:10:02.267Z,25.10
2022-08-14T08:12:32.316Z,25.20
2022-08-14T08:15:07.471Z,25.20
2022-08-14T08:17:42.872Z,25.20
2022-08-14T08:20:27.428Z,25.20
2022-08-14T08:23:00.448Z,25.20
2022-08-14T08:25:40.142Z,25.20
2022-08-14T08:28:19.742Z,25.30
2022-08-14T08:30:52.915Z,25.40
2022-08-14T08:33:22.682Z,25.50
2022-08-14T08:35:52.276Z,25.50
2022-08-14T08:39:18.019Z,25.60
2022-08-14T08:41:11.383Z,25.70
2022-08-14T08:43:46.751Z,25.80
2022-08-14T08:46:21.451Z,25.80
2022-08-14T08:51:25.188Z,26.00
2022-08-14T08:54:00.590Z,26.10
2022-08-14T08:56:40.680Z,26.10
2022-08-14T08:59:31.337Z,26.20
2022-08-14T09:02:05.113Z,26.20
2022-08-14T09:04:37.262Z,26.30
2022-08-14T09:07:16.054Z,26.30
2022-08-14T09:09:54.164Z,26.20
2022-08-14T09:12:32.391Z,26.30
2022-08-14T09:15:02.337Z,26.30
2022-08-14T09:17:30.809Z,27.70
2022-08-14T09:20:02.296Z,26.40
2022-08-14T09:22:36.486Z,26.50
2022-08-14T09:25:11.272Z,26.50
2022-08-14T09:27:43.488Z,26.60
2022-08-14T09:30:30.998Z,26.80
2022-08-14T09:33:32.747Z,26.90
2022-08-14T09:36:39.767Z,26.90
2022-08-14T09:39:23.575Z,26.90
2022-08-14T09:42:21.139Z,27.10
2022-08-14T09:45:11.539Z,27.10
2022-08-14T09:47:45.619Z,27.10
2022-08-14T09:50:18.550Z,27.30
2022-08-14T09:52:54.863Z,27.40
2022-08-14T09:55:27.881Z,27.30
2022-08-14T09:58:09.949Z,27.40
2022-08-14T10:00:49.299Z,27.60
2022-08-14T10:03:33.161Z,27.60
2022-08-14T10:06:09.788Z,27.60
2022-08-14T10:08:50.716Z,27.70
2022-08-14T10:11:24.019Z,27.90
2022-08-14T10:13:55.691Z,28.00
2022-08-14T10:16:27.492Z,28.10
2022-08-14T10:19:07.564Z,28.20
2022-08-14T10:21:58.316Z,28.20
2022-08-14T10:24:36.915Z,28.40
2022-08-14T10:27:18.182Z,28.40
2022-08-14T10:29:49.843Z,28.60
2022-08-14T10:35:13.672Z,28.80
2022-08-14T10:37:46.415Z,29.00
2022-08-14T10:40:38.929Z,29.10
2022-08-14T10:43:18.317Z,29.20
2022-08-14T10:45:59.914Z,29.30
2022-08-14T10:48:55.942Z,29.40
2022-08-14T10:51:26.505Z,29.50
2022-08-14T10:53:58.341Z,29.60
2022-08-14T10:56:34.263Z,29.70
2022-08-14T10:59:07.167Z,29.70
2022-08-14T11:01:40.893Z,29.70
2022-08-14T11:04:25.380Z,29.80
2022-08-14T11:06:56.108Z,29.80
2022-08-14T11:09:26.531Z,29.90
2022-08-14T11:12:44.135Z,30.00
2022-08-14T11:14:59.367Z,30.00
2022-08-14T11:17:31.813Z,30.10
2022-08-14T11:20:03.328Z,30.10
2022-08-14T11:22:56.415Z,30.10
2022-08-14T11:25:23.775Z,30.20
2022-08-14T11:27:54.998Z,30.20
2022-08-14T11:30:51.677Z,30.30
2022-08-14T11:33:14.145Z,30.40
2022-08-14T11:35:49.710Z,30.40
2022-08-14T11:38:21.653Z,30.40
2022-08-14T11:40:49.601Z,30.50
2022-08-14T11:43:29.129Z,30.60
2022-08-14T11:45:59.407Z,30.60
2022-08-14T11:49:02.131Z,30.60
2022-08-14T11:51:23.729Z,30.70
2022-08-14T11:53:54.719Z,30.70
2022-08-14T11:56:25.508Z,30.70
2022-08-14T11:58:57.678Z,30.60
2022-08-14T12:01:31.094Z,30.70
2022-08-14T12:04:32.621Z,30.80
2022-08-14T12:06:58.957Z,30.60
2022-08-14T12:09:31.561Z,30.60
2022-08-14T12:12:00.154Z,30.60
2022-08-14T12:14:35.643Z,30.70
2022-08-14T12:17:11.911Z,30.80
2022-08-14T12:19:51.002Z,31.10
2022-08-14T12:22:33.939Z,31.10
2022-08-14T12:25:03.309Z,31.20
2022-08-14T12:27:46.679Z,31.20
2022-08-14T12:30:29.264Z,31.20
2022-08-14T12:33:08.430Z,31.20
2022-08-14T12:35:41.176Z,31.20
2022-08-14T12:38:17.290Z,31.20
2022-08-14T12:40:50.290Z,31.30
2022-08-14T12:43:21.416Z,31.40
2022-08-14T12:45:51.018Z,31.40
2022-08-14T12:48:31.697Z,31.60
2022-08-14T12:51:00.580Z,31.50
2022-08-14T12:53:38.916Z,31.60
2022-08-14T12:56:22.755Z,31.50
2022-08-14T12:58:57.499Z,31.40
2022-08-14T13:01:28.156Z,31.30
2022-08-14T13:04:08.401Z,31.30
2022-08-14T13:06:39.126Z,31.40
2022-08-14T13:09:11.496Z,31.50
2022-08-14T13:11:44.678Z,31.60
2022-08-14T13:14:17.028Z,31.60
2022-08-14T13:16:50.203Z,31.70
2022-08-14T13:19:24.348Z,31.80
2022-08-14T13:22:05.866Z,31.80
2022-08-14T13:24:40.142Z,31.80
2022-08-14T13:27:09.875Z,32.00
2022-08-14T13:29:46.812Z,32.10
2022-08-14T13:32:16.243Z,32.10
2022-08-14T13:34:48.586Z,32.10
2022-08-14T13:37:17.217Z,32.20
2022-08-14T13:39:56.874Z,32.30
2022-08-14T13:42:27.675Z,32.30
2022-08-14T13:45:00.431Z,32.40
2022-08-14T13:47:30.837Z,32.40
2022-08-14T13:50:04.858Z,32.40
2022-08-14T13:52:59.612Z,32.40
2022-08-14T13:55:29.935Z,32.70
2022-08-14T13:58:03.385Z,32.40
2022-08-14T14:00:35.931Z,32.40
2022-08-14T14:03:21.988Z,31.60
2022-08-14T14:05:54.637Z,32.50
2022-08-14T14:08:43.675Z,32.70
2022-08-14T14:11:16.029Z,32.70
2022-08-14T14:13:45.169Z,32.70
2022-08-14T14:16:26.189Z,32.80
2022-08-14T14:21:40.793Z,32.50
2022-08-14T14:24:11.745Z,32.40
2022-08-14T14:26:50.293Z,32.40
2022-08-14T14:29:24.160Z,32.50
2022-08-14T14:31:54.929Z,32.70
2022-08-14T14:34:29.386Z,32.70
2022-08-14T14:37:02.851Z,32.70
2022-08-14T14:39:35.300Z,32.70
2022-08-14T14:42:08.142Z,32.80
2022-08-14T14:44:40.480Z,32.90
2022-08-14T14:47:13.399Z,32.90
2022-08-14T14:49:54.688Z,33.00
2022-08-14T14:52:27.514Z,33.10
2022-08-14T14:54:58.838Z,33.00
2022-08-14T14:57:34.946Z,33.00
2022-08-14T15:00:06.706Z,32.80
2022-08-14T15:02:41.401Z,32.60
2022-08-14T15:05:11.323Z,32.50
2022-08-14T15:10:27.310Z,32.10
2022-08-14T15:13:00.276Z,32.10
2022-08-14T15:15:32.678Z,32.20
2022-08-14T15:18:01.298Z,32.30
2022-08-14T15:20:31.186Z,32.40
2022-08-14T15:23:08.077Z,32.60
2022-08-14T15:25:40.770Z,32.70
2022-08-14T15:28:13.050Z,32.80
2022-08-14T15:30:51.161Z,32.90
2022-08-14T15:34:01.121Z,33.20
2022-08-14T15:36:29.369Z,33.30
2022-08-14T15:38:58.994Z,33.30
2022-08-14T15:41:41.192Z,33.20
2022-08-14T15:44:25.513Z,33.20
2022-08-14T15:46:55.876Z,33.10
2022-08-14T15:49:34.418Z,33.00
2022-08-14T15:52:04.587Z,33.10
2022-08-14T15:54:34.981Z,33.10
2022-08-14T15:57:06.124Z,33.10
2022-08-14T15:59:53.871Z,33.00
2022-08-14T16:02:24.483Z,33.00
2022-08-14T16:04:55.527Z,33.00
2022-08-14T16:07:26.951Z,33.00
2022-08-14T16:10:25.270Z,33.10
2022-08-14T16:12:46.699Z,33.10
2022-08-14T16:15:16.663Z,33.10
2022-08-14T16:17:45.797Z,33.00
2022-08-14T16:20:41.942Z,33.00
2022-08-14T16:23:11.432Z,33.00
2022-08-14T16:25:43.207Z,33.00
2022-08-14T16:28:27.090Z,33.20
2022-08-14T16:30:56.335Z,33.20
2022-08-14T16:33:54.604Z,33.20
2022-08-14T16:36:31.297Z,33.20
2022-08-14T16:39:01.871Z,33.20
2022-08-14T16:41:32.250Z,33.20
2022-08-14T16:44:13.732Z,33.20
2022-08-14T16:46:56.824Z,33.30
2022-08-14T16:49:26.075Z,33.20
2022-08-14T16:52:26.025Z,33.20
2022-08-14T16:57:48.226Z,33.10
2022-08-14T17:00:43.936Z,33.00
2022-08-14T17:03:13.468Z,32.90
2022-08-14T17:05:43.832Z,32.90
2022-08-14T17:08:33.428Z,32.70
2022-08-14T17:11:10.718Z,32.60
2022-08-14T17:13:58.336Z,32.40
2022-08-14T17:16:33.025Z,32.40
2022-08-14T17:19:05.285Z,32.20
2022-08-14T17:21:38.121Z,32.20
2022-08-14T17:24:56.450Z,32.10
2022-08-14T17:27:05.176Z,32.20
2022-08-14T17:29:56.105Z,32.20
2022-08-14T17:32:44.478Z,32.20
2022-08-14T17:35:58.048Z,32.10
2022-08-14T17:38:38.368Z,32.00
2022-08-14T17:44:22.019Z,31.90
2022-08-14T17:47:06.440Z,31.80
2022-08-14T17:49:40.301Z,31.80
2022-08-14T17:52:18.391Z,31.80
2022-08-14T17:55:00.670Z,31.70
2022-08-14T17:57:35.635Z,31.70
2022-08-14T18:00:12.444Z,31.60
2022-08-14T18:02:50.494Z,31.50
2022-08-14T18:05:23.306Z,31.50
2022-08-14T18:08:31.233Z,31.40
2022-08-14T18:10:54.851Z,31.30
2022-08-14T18:13:51.461Z,31.20
2022-08-14T18:16:20.566Z,31.10
2022-08-14T18:18:52.304Z,31.10
2022-08-14T18:21:40.069Z,31.00
2022-08-14T18:24:20.058Z,30.80
2022-08-14T18:27:03.314Z,30.80
2022-08-14T18:29:42.728Z,30.70
2022-08-14T18:32:47.645Z,30.60
2022-08-14T18:35:45.372Z,30.40
2022-08-14T18:38:26.306Z,30.30
2022-08-14T18:41:37.284Z,30.20
2022-08-14T18:44:10.250Z,30.00
2022-08-14T18:47:16.192Z,30.00
2022-08-14T18:50:26.573Z,29.90
2022-08-14T18:53:07.082Z,29.70
2022-08-14T18:55:53.223Z,29.70
2022-08-14T18:58:31.028Z,29.70
2022-08-14T19:01:00.906Z,29.60
2022-08-14T19:03:59.987Z,29.50
2022-08-14T19:06:40.186Z,29.50
2022-08-14T19:09:31.625Z,29.50
2022-08-14T19:11:59.879Z,29.50
2022-08-14T19:14:48.415Z,29.50
2022-08-14T19:17:42.771Z,29.40
2022-08-14T19:20:53.000Z,29.40
2022-08-14T19:23:42.095Z,29.30
2022-08-14T19:26:35.281Z,29.20
2022-08-14T19:29:37.562Z,29.20
2022-08-14T19:32:36.552Z,29.10
2022-08-14T19:35:16.886Z,29.10
2022-08-14T19:37:52.163Z,29.00
2022-08-14T19:40:33.946Z,29.00
2022-08-14T19:43:06.580Z,29.00
2022-08-14T19:45:37.968Z,29.00
2022-08-14T19:48:13.012Z,28.90
2022-08-14T19:50:44.435Z,28.90
2022-08-14T19:53:17.074Z,28.90
2022-08-14T19:55:59.029Z,28.90
2022-08-14T19:58:54.449Z,28.80
2022-08-14T20:01:27.089Z,28.80
2022-08-14T20:04:46.113Z,28.90
2022-08-14T20:06:57.056Z,28.90
2022-08-14T20:11:07.228Z,28.90
2022-08-14T20:12:28.905Z,28.90
2022-08-14T20:15:08.793Z,29.00
2022-08-14T20:17:40.800Z,29.00
2022-08-14T20:20:30.864Z,28.90
2022-08-14T20:23:02.013Z,28.80
2022-08-14T20:25:37.586Z,28.90
2022-08-14T20:28:29.865Z,28.80
2022-08-14T20:31:17.964Z,28.80
2022-08-14T20:34:06.439Z,28.80
2022-08-14T20:36:38.744Z,28.70
2022-08-14T20:39:10.413Z,28.70
2022-08-14T20:41:51.111Z,28.60
2022-08-14T20:44:40.496Z,28.60
2022-08-14T20:47:16.133Z,28.50
2022-08-14T20:49:44.181Z,28.50
2022-08-14T20:52:18.948Z,28.50
2022-08-14T20:54:51.250Z,28.50
2022-08-14T20:57:20.763Z,28.50
2022-08-14T20:59:53.131Z,28.40
2022-08-14T21:02:38.408Z,28.50
2022-08-14T21:05:21.883Z,28.40
2022-08-14T21:08:08.238Z,28.30
2022-08-14T21:10:50.179Z,28.20
2022-08-14T21:14:08.791Z,28.10
2022-08-14T21:16:33.137Z,28.10
2022-08-14T21:19:00.007Z,28.00
2022-08-14T21:21:41.312Z,28.40
2022-08-14T21:24:38.537Z,27.70
2022-08-14T21:27:12.085Z,27.70
2022-08-14T21:29:53.666Z,27.60
2022-08-14T21:32:35.682Z,27.60
2022-08-14T21:35:08.948Z,27.60
2022-08-14T21:37:43.674Z,27.50
2022-08-14T21:40:40.583Z,27.50
2022-08-14T21:43:01.006Z,27.40
2022-08-14T21:45:31.796Z,27.40
2022-08-14T21:48:10.699Z,27.40
2022-08-14T21:50:59.897Z,27.40
2022-08-14T21:55:59.752Z,27.50
2022-08-14T21:58:52.394Z,27.50
2022-08-14T22:01:19.292Z,27.50
2022-08-14T22:03:54.512Z,27.50
2022-08-14T22:06:28.548Z,27.50
2022-08-14T22:08:58.119Z,27.40
2022-08-14T22:11:27.490Z,27.40
2022-08-14T22:14:02.143Z,27.40
2022-08-14T22:17:03.525Z,27.40
2022-08-14T22:19:43.545Z,27.40
2022-08-14T22:22:23.814Z,27.40
2022-08-14T22:25:00.150Z,27.30
2022-08-14T22:27:31.284Z,27.30
2022-08-14T22:30:01.342Z,27.30
2022-08-14T22:32:35.145Z,27.30
2022-08-14T22:35:18.855Z,27.30
2022-08-14T22:38:36.417Z,27.30
2022-08-14T22:41:00.251Z,27.20
2022-08-14T22:43:32.737Z,27.20
2022-08-14T22:46:03.337Z,27.20
2022-08-14T22:48:43.015Z,27.20
2022-08-14T22:51:13.373Z,27.20
2022-08-14T22:53:43.965Z,27.20
2022-08-14T22:56:20.410Z,27.20
2022-08-14T22:58:53.762Z,27.10
2022-08-14T23:01:55.189Z,27.10
2022-08-14T23:04:35.667Z,27.10
2022-08-14T23:07:21.833Z,27.00
2022-08-14T23:09:56.275Z,27.00
2022-08-14T23:12:27.536Z,27.00
2022-08-14T23:14:56.066Z,26.90
2022-08-14T23:17:23.947Z,26.90
2022-08-14T23:19:56.651Z,26.90
2022-08-14T23:22:26.084Z,27.00
2022-08-14T23:24:57.875Z,26.90
2022-08-14T23:27:31.901Z,26.80
2022-08-14T23:30:31.590Z,26.50
2022-08-14T23:33:03.403Z,26.40
2022-08-14T23:35:33.193Z,26.30
2022-08-14T23:38:02.870Z,26.10
2022-08-14T23:40:32.615Z,25.80
2022-08-14T23:43:08.179Z,25.80
2022-08-14T23:45:39.380Z,25.70
2022-08-14T23:48:12.619Z,25.70
2022-08-14T23:50:44.307Z,25.70
2022-08-14T23:53:27.903Z,25.80
2022-08-14T23:55:59.778Z,25.70
2022-08-14T23:58:31.959Z,25.60
